createdAt,value
2019-03-21T00:01:49.891Z,3.10
2019-03-21T00:04:22.507Z,3.10
2019-03-21T00:06:55.269Z,3.00
2019-03-21T00:09:27.448Z,3.00
2019-03-21T00:12:10.239Z,3.00
2019-03-21T00:15:04.298Z,2.90
2019-03-21T00:17:44.716Z,3.00
2019-03-21T00:20:18.886Z,3.00
2019-03-21T00:22:50.640Z,2.90
2019-03-21T00:25:25.042Z,2.90
2019-03-21T00:27:57.527Z,2.80
2019-03-21T00:30:28.999Z,2.80
2019-03-21T00:33:01.619Z,2.80
2019-03-21T00:35:34.296Z,2.80
2019-03-21T00:38:06.221Z,2.70
2019-03-21T00:40:43.880Z,2.70
2019-03-21T00:43:14.998Z,2.70
2019-03-21T00:45:47.600Z,2.70
2019-03-21T00:48:21.411Z,2.70
2019-03-21T00:50:53.733Z,2.60
2019-03-21T00:53:25.912Z,2.60
2019-03-21T00:55:58.425Z,2.60
2019-03-21T00:58:30.669Z,2.60
2019-03-21T01:01:02.868Z,2.60
2019-03-21T01:03:35.926Z,2.50
2019-03-21T01:06:08.667Z,2.50
2019-03-21T01:08:40.629Z,2.50
2019-03-21T01:11:13.044Z,2.50
2019-03-21T01:13:44.471Z,2.50
2019-03-21T01:16:17.642Z,2.50
2019-03-21T01:18:49.882Z,2.40
2019-03-21T01:21:22.648Z,2.40
2019-03-21T01:23:55.524Z,2.40
2019-03-21T01:26:28.161Z,2.30
2019-03-21T01:29:00.072Z,2.30
2019-03-21T01:31:33.070Z,2.30
2019-03-21T01:34:04.525Z,2.20
2019-03-21T01:36:37.434Z,2.20
2019-03-21T01:39:11.255Z,2.20
2019-03-21T01:41:43.310Z,2.20
2019-03-21T01:44:15.722Z,2.20
2019-03-21T01:46:48.295Z,2.20
2019-03-21T01:49:20.332Z,2.10
2019-03-21T01:51:52.997Z,2.10
2019-03-21T01:54:25.829Z,2.10
2019-03-21T01:56:57.678Z,2.00
2019-03-21T01:59:30.203Z,2.00
2019-03-21T02:02:02.469Z,2.00
2019-03-21T02:04:34.707Z,2.00
2019-03-21T02:07:06.893Z,2.00
2019-03-21T02:09:39.363Z,2.00
2019-03-21T02:12:11.215Z,1.90
2019-03-21T02:14:51.820Z,1.90
2019-03-21T02:17:17.458Z,1.90
2019-03-21T02:19:50.034Z,1.90
2019-03-21T02:22:22.016Z,1.80
2019-03-21T02:24:53.839Z,1.80
2019-03-21T02:27:26.429Z,1.70
2019-03-21T02:29:58.394Z,1.70
2019-03-21T02:32:31.358Z,1.70
2019-03-21T02:35:03.882Z,1.60
2019-03-21T02:37:36.190Z,1.60
2019-03-21T02:40:11.279Z,1.60
2019-03-21T02:42:43.825Z,1.60
2019-03-21T02:45:16.485Z,1.60
2019-03-21T02:47:47.977Z,1.60
2019-03-21T02:50:24.002Z,1.60
2019-03-21T02:52:56.604Z,1.60
2019-03-21T02:55:29.162Z,1.60
2019-03-21T02:58:01.954Z,1.50
2019-03-21T03:00:34.447Z,1.60
2019-03-21T03:03:07.208Z,1.50
2019-03-21T03:05:39.742Z,1.60
2019-03-21T03:08:11.225Z,1.60
2019-03-21T03:10:47.685Z,1.60
2019-03-21T03:13:20.248Z,1.60
2019-03-21T03:15:52.431Z,1.60
2019-03-21T03:18:24.393Z,1.50
2019-03-21T03:20:57.159Z,1.60
2019-03-21T03:23:29.339Z,1.50
2019-03-21T03:26:01.575Z,1.50
2019-03-21T03:28:34.269Z,1.50
2019-03-21T03:31:06.949Z,1.40
2019-03-21T03:33:39.068Z,1.40
2019-03-21T03:36:10.705Z,1.50
2019-03-21T03:38:43.390Z,1.40
2019-03-21T03:41:15.095Z,1.40
2019-03-21T03:43:47.775Z,1.50
2019-03-21T03:46:19.678Z,1.40
2019-03-21T03:48:52.303Z,1.50
2019-03-21T03:51:24.450Z,1.50
2019-03-21T03:53:57.070Z,1.50
2019-03-21T03:56:29.353Z,1.50
2019-03-21T03:59:02.334Z,1.50
2019-03-21T04:01:35.238Z,1.50
2019-03-21T04:04:07.782Z,1.50
2019-03-21T04:06:40.424Z,1.50
2019-03-21T04:09:12.918Z,1.50
2019-03-21T04:11:44.973Z,1.40
2019-03-21T04:14:17.751Z,1.50
2019-03-21T04:16:50.027Z,1.50
2019-03-21T04:19:22.289Z,1.60
2019-03-21T04:21:54.820Z,1.50
2019-03-21T04:24:26.834Z,1.40
2019-03-21T04:26:59.616Z,1.30
2019-03-21T04:29:32.082Z,1.40
2019-03-21T04:32:04.205Z,1.50
2019-03-21T04:34:36.783Z,1.50
2019-03-21T04:37:09.636Z,1.50
2019-03-21T04:39:42.226Z,1.50
2019-03-21T04:42:15.278Z,1.60
2019-03-21T04:44:48.203Z,1.60
2019-03-21T04:47:20.677Z,1.60
2019-03-21T04:49:52.849Z,1.60
2019-03-21T04:52:25.403Z,1.60
2019-03-21T04:54:57.727Z,1.50
2019-03-21T04:57:30.221Z,1.50
2019-03-21T05:00:03.812Z,1.50
2019-03-21T05:02:35.896Z,1.50
2019-03-21T05:05:09.882Z,1.50
2019-03-21T05:07:42.049Z,1.50
2019-03-21T05:10:14.987Z,1.50
2019-03-21T05:12:47.510Z,1.40
2019-03-21T05:15:23.716Z,1.50
2019-03-21T05:17:58.031Z,1.40
2019-03-21T05:20:30.793Z,1.40
2019-03-21T05:23:03.092Z,1.30
2019-03-21T05:25:35.023Z,1.30
2019-03-21T05:28:06.896Z,1.30
2019-03-21T05:30:52.955Z,1.30
2019-03-21T05:33:25.602Z,1.30
2019-03-21T05:35:57.759Z,1.20
2019-03-21T05:38:31.695Z,1.30
2019-03-21T05:41:03.976Z,1.30
2019-03-21T05:43:45.046Z,1.40
2019-03-21T05:46:26.560Z,1.40
2019-03-21T05:48:52.946Z,1.30
2019-03-21T05:51:25.511Z,1.30
2019-03-21T05:53:57.887Z,1.30
2019-03-21T05:56:29.906Z,1.40
2019-03-21T05:59:01.387Z,1.30
2019-03-21T06:01:33.859Z,1.30
2019-03-21T06:04:05.382Z,1.30
2019-03-21T06:07:05.632Z,1.40
2019-03-21T06:09:37.960Z,1.50
2019-03-21T06:12:09.798Z,1.60
2019-03-21T06:14:48.586Z,1.60
2019-03-21T06:17:20.559Z,1.60
2019-03-21T06:20:11.999Z,1.70
2019-03-21T06:23:29.852Z,1.70
2019-03-21T06:26:37.819Z,1.80
2019-03-21T06:29:09.728Z,1.80
2019-03-21T06:31:41.553Z,1.90
2019-03-21T06:34:13.683Z,1.90
2019-03-21T06:36:45.956Z,2.00
2019-03-21T06:39:18.492Z,2.10
2019-03-21T06:41:50.753Z,2.20
2019-03-21T06:44:22.702Z,2.30
2019-03-21T06:46:55.375Z,2.40
2019-03-21T06:49:28.300Z,2.40
2019-03-21T06:52:01.138Z,2.50
2019-03-21T06:54:33.775Z,2.50
2019-03-21T06:59:00.514Z,2.60
2019-03-21T07:00:00.074Z,2.70
2019-03-21T07:02:32.070Z,2.70
2019-03-21T07:05:05.036Z,2.80
2019-03-21T07:07:37.939Z,2.90
2019-03-21T07:10:11.919Z,3.00
2019-03-21T07:12:44.456Z,3.10
2019-03-21T07:15:16.709Z,3.10
2019-03-21T07:17:49.710Z,3.20
2019-03-21T07:20:21.991Z,3.20
2019-03-21T07:22:54.087Z,3.50
2019-03-21T07:25:26.458Z,3.50
2019-03-21T07:27:59.147Z,3.60
2019-03-21T07:30:30.999Z,3.60
2019-03-21T07:33:03.600Z,3.70
2019-03-21T07:35:36.280Z,3.80
2019-03-21T07:38:08.555Z,3.70
2019-03-21T07:40:41.158Z,3.80
2019-03-21T07:43:13.493Z,4.00
2019-03-21T07:45:45.800Z,4.10
2019-03-21T07:48:17.876Z,4.20
2019-03-21T07:50:50.607Z,4.50
2019-03-21T07:53:23.525Z,4.50
2019-03-21T07:55:56.874Z,4.70
2019-03-21T07:58:28.756Z,4.70
2019-03-21T08:01:01.188Z,4.90
2019-03-21T08:03:33.397Z,5.00
2019-03-21T08:06:05.276Z,5.10
2019-03-21T08:08:36.710Z,5.20
2019-03-21T08:11:08.902Z,5.30
2019-03-21T08:13:41.438Z,5.40
2019-03-21T08:16:13.087Z,5.60
2019-03-21T08:18:45.129Z,5.80
2019-03-21T08:21:18.014Z,5.90
2019-03-21T08:23:50.756Z,6.10
2019-03-21T08:26:23.711Z,6.30
2019-03-21T08:28:56.278Z,6.50
2019-03-21T08:31:29.101Z,6.50
2019-03-21T08:34:01.409Z,6.60
2019-03-21T08:36:34.277Z,6.80
2019-03-21T08:39:08.793Z,6.90
2019-03-21T08:41:41.417Z,7.00
2019-03-21T08:44:14.023Z,7.20
2019-03-21T08:46:46.144Z,7.30
2019-03-21T08:49:18.793Z,7.60
2019-03-21T08:51:51.524Z,7.70
2019-03-21T08:54:23.981Z,7.80
2019-03-21T08:56:56.558Z,7.90
2019-03-21T08:59:28.446Z,7.90
2019-03-21T09:01:59.677Z,8.20
2019-03-21T09:04:32.247Z,8.30
2019-03-21T09:07:03.859Z,8.40
2019-03-21T09:09:35.820Z,8.70
2019-03-21T09:12:07.523Z,8.80
2019-03-21T09:14:40.057Z,8.90
2019-03-21T09:17:12.330Z,9.10
2019-03-21T09:19:44.374Z,9.20
2019-03-21T09:22:16.741Z,9.30
2019-03-21T09:24:48.919Z,9.30
2019-03-21T09:27:21.255Z,9.50
2019-03-21T09:29:53.963Z,9.70
2019-03-21T09:32:25.655Z,9.80
2019-03-21T09:34:57.987Z,9.90
2019-03-21T09:37:30.300Z,10.10
2019-03-21T09:40:02.134Z,10.00
2019-03-21T09:42:34.613Z,10.20
2019-03-21T09:45:08.061Z,10.40
2019-03-21T09:47:40.386Z,10.60
2019-03-21T09:50:14.301Z,10.60
2019-03-21T09:52:46.858Z,10.80
2019-03-21T09:55:19.804Z,11.10
2019-03-21T09:57:52.080Z,11.30
2019-03-21T10:00:34.183Z,11.30
2019-03-21T10:03:07.236Z,11.50
2019-03-21T10:05:40.365Z,11.60
2019-03-21T10:08:13.304Z,11.70
2019-03-21T10:10:45.157Z,11.70
2019-03-21T10:13:17.943Z,11.70
2019-03-21T10:15:50.246Z,11.90
2019-03-21T10:18:23.110Z,12.00
2019-03-21T10:20:55.015Z,12.10
2019-03-21T10:23:27.464Z,12.30
2019-03-21T10:25:59.469Z,12.40
2019-03-21T10:28:31.665Z,12.60
2019-03-21T10:31:03.613Z,12.70
2019-03-21T10:33:35.765Z,12.90
2019-03-21T10:36:08.009Z,13.20
2019-03-21T10:38:40.689Z,13.20
2019-03-21T10:41:12.509Z,13.20
2019-03-21T10:43:45.031Z,13.40
2019-03-21T10:46:17.464Z,13.50
2019-03-21T10:48:49.609Z,13.80
2019-03-21T10:51:22.148Z,13.90
2019-03-21T10:53:54.195Z,13.90
2019-03-21T10:56:26.129Z,14.10
2019-03-21T10:58:58.126Z,14.20
2019-03-21T11:01:30.268Z,14.30
2019-03-21T11:04:02.532Z,14.50
2019-03-21T11:06:35.239Z,14.70
2019-03-21T11:09:10.504Z,15.00
2019-03-21T11:11:42.711Z,15.10
2019-03-21T11:14:14.309Z,15.70
2019-03-21T11:16:46.268Z,15.80
2019-03-21T11:19:18.911Z,15.90
2019-03-21T11:21:51.362Z,16.30
2019-03-21T11:24:23.274Z,16.40
2019-03-21T11:26:55.796Z,16.60
2019-03-21T11:29:28.267Z,16.90
2019-03-21T11:32:00.721Z,16.90
2019-03-21T11:34:32.745Z,17.20
2019-03-21T11:37:05.497Z,17.30
2019-03-21T11:39:37.649Z,16.90
2019-03-21T11:42:10.104Z,17.50
2019-03-21T11:44:42.694Z,17.50
2019-03-21T11:47:15.474Z,17.60
2019-03-21T11:49:47.953Z,17.80
2019-03-21T11:52:20.566Z,17.90
2019-03-21T11:54:53.303Z,17.80
2019-03-21T11:57:25.241Z,18.40
2019-03-21T11:59:57.067Z,18.00
2019-03-21T12:02:29.741Z,18.10
2019-03-21T12:05:02.317Z,18.20
2019-03-21T12:07:34.733Z,17.80
2019-03-21T12:10:07.262Z,18.10
2019-03-21T12:12:39.823Z,18.00
2019-03-21T12:15:12.341Z,18.50
2019-03-21T12:17:44.849Z,19.10
2019-03-21T12:20:38.005Z,18.50
2019-03-21T12:23:09.923Z,18.60
2019-03-21T12:25:42.949Z,18.10
2019-03-21T12:28:15.658Z,17.30
2019-03-21T12:30:48.311Z,18.00
2019-03-21T12:33:21.133Z,19.00
2019-03-21T12:35:53.774Z,19.10
2019-03-21T12:38:25.505Z,19.40
2019-03-21T12:40:58.096Z,19.40
2019-03-21T12:43:30.107Z,19.30
2019-03-21T12:46:02.387Z,19.40
2019-03-21T12:48:34.756Z,19.50
2019-03-21T12:51:06.982Z,19.50
2019-03-21T12:53:39.639Z,20.10
2019-03-21T12:56:12.030Z,20.70
2019-03-21T12:58:44.411Z,20.50
2019-03-21T13:01:16.340Z,20.00
2019-03-21T13:03:48.647Z,19.90
2019-03-21T13:06:20.883Z,20.20
2019-03-21T13:08:53.044Z,20.60
2019-03-21T13:11:25.259Z,20.80
2019-03-21T13:13:57.867Z,20.70
2019-03-21T13:16:30.028Z,20.60
2019-03-21T13:19:02.688Z,20.40
2019-03-21T13:21:35.245Z,20.10
2019-03-21T13:24:08.152Z,20.80
2019-03-21T13:26:40.712Z,21.20
2019-03-21T13:29:13.693Z,21.40
2019-03-21T13:31:45.400Z,21.50
2019-03-21T13:34:17.596Z,21.60
2019-03-21T13:36:50.259Z,21.50
2019-03-21T13:39:22.910Z,21.40
2019-03-21T13:41:54.991Z,21.10
2019-03-21T13:44:26.520Z,21.40
2019-03-21T13:46:58.697Z,21.10
2019-03-21T13:49:31.424Z,21.20
2019-03-21T13:52:04.851Z,21.40
2019-03-21T13:54:37.714Z,21.60
2019-03-21T13:57:10.584Z,21.70
2019-03-21T13:59:43.295Z,21.70
2019-03-21T14:02:15.515Z,21.60
2019-03-21T14:04:48.535Z,21.50
2019-03-21T14:07:20.991Z,22.00
2019-03-21T14:09:53.623Z,21.80
2019-03-21T14:12:26.556Z,22.20
2019-03-21T14:14:58.841Z,22.30
2019-03-21T14:17:31.821Z,21.90
2019-03-21T14:20:04.381Z,21.40
2019-03-21T14:22:36.943Z,21.50
2019-03-21T14:25:10.191Z,22.20
2019-03-21T14:27:42.838Z,22.30
2019-03-21T14:30:16.796Z,21.70
2019-03-21T14:32:49.393Z,22.50
2019-03-21T14:35:22.536Z,22.50
2019-03-21T14:37:55.093Z,22.70
2019-03-21T14:40:28.410Z,22.30
2019-03-21T14:43:00.693Z,22.10
2019-03-21T14:45:33.054Z,22.30
2019-03-21T14:48:04.722Z,22.60
2019-03-21T14:50:37.300Z,22.90
2019-03-21T14:53:09.502Z,22.90
2019-03-21T14:55:47.465Z,22.90
2019-03-21T14:58:16.147Z,23.00
2019-03-21T15:00:48.668Z,23.30
2019-03-21T15:03:21.526Z,23.30
2019-03-21T15:05:53.933Z,23.00
2019-03-21T15:08:26.193Z,22.60
2019-03-21T15:10:58.918Z,22.70
2019-03-21T15:13:31.639Z,22.60
2019-03-21T15:16:03.266Z,22.80
2019-03-21T15:18:36.114Z,22.90
2019-03-21T15:21:09.007Z,22.50
2019-03-21T15:23:41.226Z,22.50
2019-03-21T15:26:13.896Z,22.30
2019-03-21T15:28:46.223Z,22.00
2019-03-21T15:31:18.386Z,22.30
2019-03-21T15:33:50.796Z,22.70
2019-03-21T15:36:23.522Z,21.90
2019-03-21T15:38:56.509Z,21.80
2019-03-21T15:41:29.424Z,21.20
2019-03-21T15:44:01.554Z,21.10
2019-03-21T15:46:33.504Z,20.90
2019-03-21T15:49:06.191Z,21.10
2019-03-21T15:51:38.521Z,20.80
2019-03-21T15:54:11.391Z,20.70
2019-03-21T15:56:43.492Z,20.40
2019-03-21T15:59:15.506Z,20.30
2019-03-21T16:01:47.099Z,19.60
2019-03-21T16:04:19.484Z,19.70
2019-03-21T16:06:52.594Z,19.70
2019-03-21T16:09:24.786Z,19.70
2019-03-21T16:11:57.394Z,19.40
2019-03-21T16:14:30.530Z,19.20
2019-03-21T16:17:02.727Z,19.10
2019-03-21T16:19:35.792Z,19.10
2019-03-21T16:22:08.405Z,18.90
2019-03-21T16:24:41.096Z,18.40
2019-03-21T16:27:13.360Z,18.20
2019-03-21T16:29:46.442Z,18.30
2019-03-21T16:32:18.713Z,18.20
2019-03-21T16:34:50.652Z,18.20
2019-03-21T16:37:22.602Z,18.00
2019-03-21T16:39:55.294Z,17.80
2019-03-21T16:42:27.244Z,17.60
2019-03-21T16:44:59.570Z,17.50
2019-03-21T16:47:31.922Z,17.40
2019-03-21T16:50:04.281Z,17.20
2019-03-21T16:52:36.481Z,17.10
2019-03-21T16:55:09.997Z,17.00
2019-03-21T16:57:42.402Z,17.00
2019-03-21T17:00:17.753Z,16.80
2019-03-21T17:02:50.641Z,16.60
2019-03-21T17:05:22.795Z,16.60
2019-03-21T17:07:55.684Z,16.60
2019-03-21T17:10:30.656Z,16.50
2019-03-21T17:13:04.758Z,16.40
2019-03-21T17:15:37.306Z,16.30
2019-03-21T17:18:09.850Z,16.30
2019-03-21T17:20:42.576Z,16.20
2019-03-21T17:23:15.576Z,16.20
2019-03-21T17:25:47.720Z,16.10
2019-03-21T17:28:20.257Z,16.10
2019-03-21T17:30:52.993Z,16.10
2019-03-21T17:33:24.969Z,15.90
2019-03-21T17:35:57.760Z,15.70
2019-03-21T17:38:29.506Z,15.60
2019-03-21T17:41:01.483Z,15.50
2019-03-21T17:43:34.014Z,15.30
2019-03-21T17:46:06.104Z,15.20
2019-03-21T17:48:38.723Z,15.10
2019-03-21T17:51:11.259Z,15.00
2019-03-21T17:53:43.599Z,14.90
2019-03-21T17:56:16.448Z,14.80
2019-03-21T17:58:47.900Z,14.80
2019-03-21T18:01:21.187Z,14.70
2019-03-21T18:03:54.258Z,14.60
2019-03-21T18:06:27.468Z,14.50
2019-03-21T18:08:59.957Z,14.40
2019-03-21T18:11:32.801Z,14.40
2019-03-21T18:14:05.590Z,14.30
2019-03-21T18:16:37.920Z,14.20
2019-03-21T18:19:10.780Z,14.10
2019-03-21T18:21:43.674Z,13.90
2019-03-21T18:24:16.654Z,13.80
2019-03-21T18:26:48.956Z,13.70
2019-03-21T18:29:21.334Z,13.60
2019-03-21T18:31:53.700Z,13.50
2019-03-21T18:34:26.095Z,13.40
2019-03-21T18:36:57.960Z,13.40
2019-03-21T18:39:30.371Z,13.30
2019-03-21T18:42:02.299Z,13.20
2019-03-21T18:44:35.059Z,13.10
2019-03-21T18:47:07.647Z,13.10
2019-03-21T18:49:39.946Z,13.10
2019-03-21T18:52:12.341Z,13.00
2019-03-21T18:54:45.121Z,12.90
2019-03-21T18:57:17.618Z,12.90
2019-03-21T18:59:50.567Z,12.70
2019-03-21T19:02:24.520Z,12.70
2019-03-21T19:04:57.466Z,12.60
2019-03-21T19:07:30.170Z,12.60
2019-03-21T19:10:03.698Z,12.50
2019-03-21T19:12:36.985Z,12.50
2019-03-21T19:15:12.346Z,12.40
2019-03-21T19:17:44.533Z,12.40
2019-03-21T19:20:18.209Z,12.40
2019-03-21T19:22:51.257Z,12.30
2019-03-21T19:25:24.051Z,12.30
2019-03-21T19:27:56.480Z,12.30
2019-03-21T19:30:30.018Z,12.20
2019-03-21T19:33:03.555Z,12.10
2019-03-21T19:35:36.322Z,12.00
2019-03-21T19:38:09.721Z,12.00
2019-03-21T19:40:42.846Z,11.90
2019-03-21T19:43:15.989Z,11.90
2019-03-21T19:45:49.567Z,11.80
2019-03-21T19:48:23.226Z,11.70
2019-03-21T19:50:56.802Z,11.50
2019-03-21T19:53:29.996Z,11.50
2019-03-21T19:56:08.392Z,11.40
2019-03-21T19:58:37.372Z,11.30
2019-03-21T20:01:12.431Z,11.30
2019-03-21T20:03:45.578Z,11.30
2019-03-21T20:06:19.184Z,11.20
2019-03-21T20:08:52.775Z,11.20
2019-03-21T20:11:25.429Z,11.20
2019-03-21T20:13:58.961Z,11.10
2019-03-21T20:16:31.546Z,11.00
2019-03-21T20:19:06.831Z,11.10
2019-03-21T20:21:47.727Z,11.00
2019-03-21T20:24:20.027Z,11.00
2019-03-21T20:26:52.396Z,10.90
2019-03-21T20:29:25.908Z,10.80
2019-03-21T20:32:00.273Z,10.70
2019-03-21T20:34:33.339Z,10.70
2019-03-21T20:37:06.406Z,10.70
2019-03-21T20:39:39.594Z,10.70
2019-03-21T20:42:13.198Z,10.60
2019-03-21T20:44:46.880Z,10.50
2019-03-21T20:47:21.812Z,10.40
2019-03-21T20:49:54.055Z,10.40
2019-03-21T20:52:27.062Z,10.30
2019-03-21T20:54:59.525Z,10.30
2019-03-21T20:57:32.482Z,10.20
2019-03-21T21:00:04.414Z,10.10
2019-03-21T21:02:38.062Z,10.10
2019-03-21T21:05:10.365Z,10.00
2019-03-21T21:07:43.113Z,10.00
2019-03-21T21:10:15.751Z,9.90
2019-03-21T21:12:50.055Z,9.80
2019-03-21T21:15:24.277Z,9.70
2019-03-21T21:17:57.053Z,9.70
2019-03-21T21:20:31.263Z,9.60
2019-03-21T21:23:04.422Z,9.50
2019-03-21T21:25:39.136Z,9.40
2019-03-21T21:28:12.267Z,9.40
2019-03-21T21:30:45.579Z,9.30
2019-03-21T21:33:18.645Z,9.20
2019-03-21T21:35:51.471Z,9.20
2019-03-21T21:38:24.141Z,9.10
2019-03-21T21:40:56.751Z,9.00
2019-03-21T21:43:29.479Z,9.00
2019-03-21T21:46:01.788Z,8.80
2019-03-21T21:48:35.117Z,8.80
2019-03-21T21:51:07.611Z,8.80
2019-03-21T21:53:42.293Z,8.80
2019-03-21T21:56:17.836Z,8.60
2019-03-21T21:58:50.419Z,8.50
2019-03-21T22:01:26.512Z,8.30
2019-03-21T22:04:04.864Z,8.30
2019-03-21T22:06:36.809Z,8.20
2019-03-21T22:09:11.773Z,8.10
2019-03-21T22:11:45.014Z,8.10
2019-03-21T22:14:17.681Z,8.00
2019-03-21T22:16:50.725Z,8.00
2019-03-21T22:19:23.513Z,7.90
2019-03-21T22:21:56.553Z,7.90
2019-03-21T22:24:29.500Z,7.80
2019-03-21T22:27:03.383Z,7.70
2019-03-21T22:29:36.079Z,7.70
2019-03-21T22:32:08.299Z,7.70
2019-03-21T22:34:40.597Z,7.60
2019-03-21T22:37:13.266Z,7.60
2019-03-21T22:39:45.610Z,7.50
2019-03-21T22:42:18.203Z,7.50
2019-03-21T22:44:50.329Z,7.40
2019-03-21T22:47:23.366Z,7.40
2019-03-21T22:49:56.353Z,7.40
2019-03-21T22:52:29.289Z,7.30
2019-03-21T22:55:01.655Z,7.20
2019-03-21T22:57:34.266Z,7.10
2019-03-21T23:00:07.127Z,7.10
2019-03-21T23:02:39.121Z,7.00
2019-03-21T23:05:12.379Z,7.00
2019-03-21T23:07:44.817Z,7.00
2019-03-21T23:10:16.861Z,6.90
2019-03-21T23:12:48.859Z,6.80
2019-03-21T23:15:21.203Z,6.70
2019-03-21T23:17:53.760Z,6.70
2019-03-21T23:20:37.707Z,6.70
2019-03-21T23:23:15.924Z,6.70
2019-03-21T23:26:06.422Z,6.70
2019-03-21T23:28:40.108Z,6.70
2019-03-21T23:31:25.871Z,6.70
2019-03-21T23:33:58.468Z,6.60
2019-03-21T23:36:30.492Z,6.60
2019-03-21T23:39:03.791Z,6.50
2019-03-21T23:41:36.077Z,6.40
2019-03-21T23:44:08.158Z,6.40
2019-03-21T23:46:40.722Z,6.40
2019-03-21T23:49:13.636Z,6.30
2019-03-21T23:51:46.388Z,6.30
2019-03-21T23:54:18.311Z,6.20
2019-03-21T23:56:50.148Z,6.10
2019-03-21T23:59:22.527Z,6.00
